METAR Data
IDs: Format: Raw Decoded Include TAF

Data at: 0251 UTC 20 Jan 2022

EBBR 200220Z 27007KT 9999 SCT030 04/02 Q1027 NOSIG